createdAt,value
2023-04-19T00:00:23.108Z,99512.69
2023-04-19T00:02:51.592Z,99514.94
2023-04-19T00:05:22.357Z,99509.97
2023-04-19T00:07:50.990Z,99507.75
2023-04-19T00:10:19.507Z,99509.44
2023-04-19T00:12:49.258Z,99510.28
2023-04-19T00:15:17.667Z,99514.75
2023-04-19T00:17:46.231Z,99495.97
2023-04-19T00:20:15.245Z,99502.03
2023-04-19T00:22:43.601Z,99495.44
2023-04-19T00:25:11.986Z,99503.44
2023-04-19T00:27:40.415Z,99504.84
2023-04-19T00:30:11.724Z,99489.38
2023-04-19T00:32:40.182Z,99491.34
2023-04-19T00:35:09.369Z,99494.34
2023-04-19T00:37:37.782Z,99486.66
2023-04-19T00:40:08.046Z,99491.59
2023-04-19T00:42:37.175Z,99482.53
2023-04-19T00:45:07.269Z,99481.69
2023-04-19T00:47:37.829Z,99478.63
2023-04-19T00:50:07.998Z,99470.34
2023-04-19T00:52:36.704Z,99465.38
2023-04-19T00:55:08.149Z,99468.13
2023-04-19T00:57:37.634Z,99469.81
2023-04-19T01:00:09.844Z,99463.75
2023-04-19T01:02:39.689Z,99458.50
2023-04-19T01:05:09.611Z,99453.56
2023-04-19T01:07:38.025Z,99466.22
2023-04-19T01:10:07.555Z,99458.53
2023-04-19T01:12:36.136Z,99458.78
2023-04-19T01:15:05.270Z,99453.84
2023-04-19T01:17:34.386Z,99449.16
2023-04-19T01:20:08.199Z,99442.28
2023-04-19T01:22:38.670Z,99446.13
2023-04-19T01:25:08.841Z,99449.44
2023-04-19T01:27:37.206Z,99437.88
2023-04-19T01:30:07.233Z,99441.75
2023-04-19T01:32:35.747Z,99442.31
2023-04-19T01:35:04.311Z,99444.53
2023-04-19T01:37:32.673Z,99442.31
2023-04-19T01:40:02.400Z,99445.63
2023-04-19T01:42:30.684Z,99434.88
2023-04-19T01:44:59.070Z,99436.81
2023-04-19T01:47:27.543Z,99441.22
2023-04-19T01:49:56.411Z,99441.78
2023-04-19T01:52:24.854Z,99443.16
2023-04-19T01:54:53.237Z,99447.00
2023-04-19T01:57:23.052Z,99442.28
2023-04-19T01:59:51.584Z,99441.44
2023-04-19T02:02:20.149Z,99436.72
2023-04-19T02:04:48.685Z,99433.41
2023-04-19T02:07:17.132Z,99432.84
2023-04-19T02:09:45.618Z,99420.41
2023-04-19T02:12:14.128Z,99422.31
2023-04-19T02:14:43.852Z,99422.56
2023-04-19T02:17:12.346Z,99419.78
2023-04-19T02:19:40.710Z,99423.41
2023-04-19T02:22:09.018Z,99419.78
2023-04-19T02:24:37.349Z,99404.00
2023-04-19T02:27:05.997Z,99407.56
2023-04-19T02:29:34.429Z,99414.97
2023-04-19T02:32:06.185Z,99414.13
2023-04-19T02:34:35.452Z,99410.50
2023-04-19T02:37:04.343Z,99408.81
2023-04-19T02:39:34.373Z,99411.00
2023-04-19T02:42:02.723Z,99410.72
2023-04-19T02:44:31.313Z,99406.84
2023-04-19T02:46:59.672Z,99399.09
2023-04-19T02:49:33.169Z,99394.09
2023-04-19T02:52:01.568Z,99392.16
2023-04-19T02:54:30.028Z,99393.81
2023-04-19T02:56:58.455Z,99389.41
2023-04-19T02:59:26.875Z,99392.44
2023-04-19T03:01:55.282Z,99384.75
2023-04-19T03:04:23.791Z,99381.16
2023-04-19T03:06:54.424Z,99368.44
2023-04-19T03:09:22.731Z,99375.63
2023-04-19T03:11:51.327Z,99372.34
2023-04-19T03:14:19.729Z,99373.44
2023-04-19T03:16:48.130Z,99368.22
2023-04-19T03:19:16.456Z,99366.28
2023-04-19T03:21:44.744Z,99370.13
2023-04-19T03:24:14.962Z,99361.00
2023-04-19T03:26:43.617Z,99361.84
2023-04-19T03:29:12.015Z,99355.22
2023-04-19T03:31:40.548Z,99359.63
2023-04-19T03:34:08.985Z,99355.75
2023-04-19T03:36:37.394Z,99353.81
2023-04-19T03:39:05.929Z,99354.09
2023-04-19T03:41:35.713Z,99346.44
2023-04-19T03:44:04.184Z,99347.03
2023-04-19T03:46:32.580Z,99355.13
2023-04-19T03:49:00.914Z,99356.53
2023-04-19T03:51:29.399Z,99349.66
2023-04-19T03:53:57.742Z,99349.16
2023-04-19T03:56:26.145Z,99337.03
2023-04-19T03:58:55.881Z,99348.09
2023-04-19T04:01:25.716Z,99341.22
2023-04-19T04:03:54.317Z,99340.41
2023-04-19T04:06:22.811Z,99340.13
2023-04-19T04:08:51.193Z,99341.25
2023-04-19T04:11:19.607Z,99350.63
2023-04-19T04:13:49.596Z,99354.53
2023-04-19T04:16:19.343Z,99352.56
2023-04-19T04:18:47.648Z,99350.94
2023-04-19T04:21:16.026Z,99345.66
2023-04-19T04:23:45.617Z,99344.56
2023-04-19T04:26:14.093Z,99347.56
2023-04-19T04:28:42.586Z,99340.94
2023-04-19T04:31:13.013Z,99350.59
2023-04-19T04:33:42.909Z,99346.13
2023-04-19T04:36:12.051Z,99342.81
2023-04-19T04:38:40.950Z,99338.66
2023-04-19T04:41:09.296Z,99356.28
2023-04-19T04:43:38.362Z,99348.56
2023-04-19T04:46:07.129Z,99337.25
2023-04-19T04:48:35.658Z,99341.91
2023-04-19T04:51:05.507Z,99343.56
2023-04-19T04:53:33.848Z,99338.88
2023-04-19T04:56:02.144Z,99336.94
2023-04-19T04:58:30.453Z,99334.19
2023-04-19T05:00:58.955Z,99337.75
2023-04-19T05:03:28.020Z,99327.84
2023-04-19T05:05:56.841Z,99328.94
2023-04-19T05:08:27.981Z,99331.44
2023-04-19T05:10:56.371Z,99321.47
2023-04-19T05:13:24.728Z,99332.53
2023-04-19T05:15:53.091Z,99322.56
2023-04-19T05:18:21.419Z,99323.41
2023-04-19T05:20:49.785Z,99325.91
2023-04-19T05:23:18.653Z,99316.50
2023-04-19T05:25:48.335Z,99316.50
2023-04-19T05:28:16.822Z,99318.94
2023-04-19T05:30:45.351Z,99317.56
2023-04-19T05:33:13.711Z,99315.31
2023-04-19T05:35:42.077Z,99318.66
2023-04-19T05:38:10.415Z,99319.47
2023-04-19T05:40:40.096Z,99310.38
2023-04-19T05:43:09.956Z,99303.19
2023-04-19T05:45:38.544Z,99304.84
2023-04-19T05:48:07.947Z,99299.84
2023-04-19T05:50:37.543Z,99300.63
2023-04-19T05:53:05.914Z,99291.19
2023-04-19T05:55:34.324Z,99300.25
2023-04-19T05:58:02.681Z,99298.31
2023-04-19T06:00:32.613Z,99296.97
2023-04-19T06:03:01.192Z,99301.13
2023-04-19T06:05:29.689Z,99295.34
2023-04-19T06:08:02.802Z,99302.28
2023-04-19T06:10:44.495Z,99297.59
2023-04-19T06:13:20.076Z,99307.50
2023-04-19T06:15:50.221Z,99297.28
2023-04-19T06:18:19.925Z,99300.28
2023-04-19T06:20:49.092Z,99301.38
2023-04-19T06:23:18.746Z,99302.13
2023-04-19T06:25:48.862Z,99301.28
2023-04-19T06:28:17.582Z,99297.09
2023-04-19T06:30:46.011Z,99305.66
2023-04-19T06:33:15.705Z,99296.22
2023-04-19T06:35:44.049Z,99303.41
2023-04-19T06:38:12.423Z,99301.75
2023-04-19T06:40:40.837Z,99307.28
2023-04-19T06:43:09.273Z,99306.75
2023-04-19T06:45:37.683Z,99298.25
2023-04-19T06:48:06.928Z,99296.03
2023-04-19T06:50:36.667Z,99301.34
2023-04-19T06:53:05.820Z,99295.25
2023-04-19T06:55:34.338Z,99293.09
2023-04-19T06:58:02.724Z,99290.59
2023-04-19T07:00:31.277Z,99289.22
2023-04-19T07:03:01.533Z,99291.47
2023-04-19T07:05:31.353Z,99295.63
2023-04-19T07:08:01.097Z,99292.34
2023-04-19T07:10:29.526Z,99293.47
2023-04-19T07:12:57.876Z,99291.81
2023-04-19T07:15:26.272Z,99292.63
2023-04-19T07:17:54.681Z,99292.06
2023-04-19T07:20:23.405Z,99293.97
2023-04-19T07:22:51.763Z,99281.78
2023-04-19T07:25:21.614Z,99285.06
2023-04-19T07:27:49.992Z,99292.25
2023-04-19T07:30:18.324Z,99284.81
2023-04-19T07:32:46.978Z,99282.88
2023-04-19T07:35:15.575Z,99284.28
2023-04-19T07:37:43.962Z,99289.81
2023-04-19T07:40:13.889Z,99284.28
2023-04-19T07:42:45.087Z,99281.50
2023-04-19T07:45:14.634Z,99279.84
2023-04-19T07:47:43.385Z,99285.69
2023-04-19T07:50:12.696Z,99281.56
2023-04-19T07:52:41.182Z,99290.66
2023-04-19T07:55:10.678Z,99290.94
2023-04-19T07:57:38.953Z,99287.63
2023-04-19T08:00:11.033Z,99281.59
2023-04-19T08:02:39.658Z,99289.03
2023-04-19T08:05:09.265Z,99277.16
2023-04-19T08:07:38.762Z,99286.59
2023-04-19T08:10:09.214Z,99284.13
2023-04-19T08:12:42.996Z,99289.63
2023-04-19T08:17:57.594Z,99285.75
2023-04-19T08:20:26.904Z,99276.63
2023-04-19T08:22:55.733Z,99280.75
2023-04-19T08:25:26.918Z,99276.03
2023-04-19T08:27:55.320Z,99281.75
2023-04-19T08:30:25.437Z,99280.00
2023-04-19T08:32:56.346Z,99278.56
2023-04-19T08:35:26.178Z,99273.50
2023-04-19T08:37:54.592Z,99271.50
2023-04-19T08:40:23.165Z,99279.16
2023-04-19T08:42:51.808Z,99273.59
2023-04-19T08:48:01.778Z,99271.84
2023-04-19T08:50:38.415Z,99271.88
2023-04-19T08:55:58.477Z,99267.81
2023-04-19T08:58:46.659Z,99274.22
2023-04-19T09:01:31.006Z,99276.81
2023-04-19T09:04:26.304Z,99284.06
2023-04-19T09:06:57.133Z,99275.88
2023-04-19T09:11:59.385Z,99278.78
2023-04-19T09:14:29.665Z,99275.75
2023-04-19T09:17:15.758Z,99279.13
2023-04-19T09:19:50.041Z,99277.47
2023-04-19T09:22:19.218Z,99273.34
2023-04-19T09:27:28.276Z,99279.72
2023-04-19T09:29:57.331Z,99274.75
2023-04-19T09:32:27.201Z,99273.88
2023-04-19T09:34:59.804Z,99273.84
2023-04-19T09:40:00.332Z,99271.72
2023-04-19T09:48:04.177Z,99273.66
2023-04-19T09:50:50.575Z,99271.84
2023-04-19T09:53:24.667Z,99268.34
2023-04-19T09:56:01.468Z,99264.44
2023-04-19T10:01:14.261Z,99268.44
2023-04-19T10:03:46.523Z,99260.06
2023-04-19T10:08:51.975Z,99268.53
2023-04-19T10:11:22.741Z,99257.47
2023-04-19T10:13:53.889Z,99261.59
2023-04-19T10:16:22.493Z,99267.34
2023-04-19T10:18:52.458Z,99258.97
2023-04-19T10:21:22.975Z,99261.69
2023-04-19T10:23:52.131Z,99254.72
2023-04-19T10:26:20.707Z,99245.84
2023-04-19T10:28:49.732Z,99256.81
2023-04-19T10:31:23.722Z,99249.56
2023-04-19T10:33:52.688Z,99254.22
2023-04-19T10:36:23.591Z,99250.09
2023-04-19T10:38:53.714Z,99252.94
2023-04-19T10:41:23.169Z,99254.66
2023-04-19T10:44:12.860Z,99252.84
2023-04-19T10:46:41.591Z,99247.38
2023-04-19T10:49:13.642Z,99246.91
2023-04-19T10:51:52.858Z,99254.50
2023-04-19T10:54:32.569Z,99252.88
2023-04-19T10:57:04.735Z,99240.56
2023-04-19T10:59:34.721Z,99239.78
2023-04-19T11:02:05.384Z,99245.91
2023-04-19T11:05:03.419Z,99245.06
2023-04-19T11:07:41.749Z,99237.78
2023-04-19T11:10:12.618Z,99227.94
2023-04-19T11:12:45.421Z,99236.84
2023-04-19T11:15:14.029Z,99231.69
2023-04-19T11:17:42.668Z,99224.59
2023-04-19T11:20:14.609Z,99224.34
2023-04-19T11:22:47.432Z,99223.16
2023-04-19T11:25:19.060Z,99220.78
2023-04-19T11:27:49.048Z,99227.59
2023-04-19T11:30:21.553Z,99222.88
2023-04-19T11:32:53.018Z,99223.56
2023-04-19T11:35:24.610Z,99214.00
2023-04-19T11:37:56.304Z,99217.91
2023-04-19T11:40:27.130Z,99219.81
2023-04-19T11:42:57.600Z,99218.47
2023-04-19T11:45:31.668Z,99215.41
2023-04-19T11:48:02.343Z,99212.78
2023-04-19T11:50:39.631Z,99211.56
2023-04-19T11:53:18.270Z,99213.56
2023-04-19T11:55:48.272Z,99213.28
2023-04-19T11:58:33.051Z,99206.00
2023-04-19T12:01:08.889Z,99201.28
2023-04-19T12:03:43.441Z,99210.25
2023-04-19T12:06:14.628Z,99200.06
2023-04-19T12:08:48.452Z,99205.41
2023-04-19T12:11:19.035Z,99196.06
2023-04-19T12:13:47.513Z,99193.50
2023-04-19T12:16:16.299Z,99197.91
2023-04-19T12:18:49.094Z,99187.63
2023-04-19T12:21:28.785Z,99194.44
2023-04-19T12:24:00.344Z,99185.06
2023-04-19T12:26:30.541Z,99191.34
2023-04-19T12:29:00.333Z,99190.19
2023-04-19T12:31:29.078Z,99187.13
2023-04-19T12:33:57.509Z,99182.91
2023-04-19T12:36:26.820Z,99182.81
2023-04-19T12:38:55.285Z,99194.72
2023-04-19T12:41:25.092Z,99188.63
2023-04-19T12:43:53.467Z,99192.19
2023-04-19T12:46:22.067Z,99191.53
2023-04-19T12:48:50.478Z,99185.84
2023-04-19T12:51:18.897Z,99186.22
2023-04-19T12:53:50.264Z,99187.13
2023-04-19T12:56:19.655Z,99177.47
2023-04-19T12:58:49.521Z,99178.38
2023-04-19T13:01:18.201Z,99184.22
2023-04-19T13:03:47.173Z,99185.38
2023-04-19T13:06:16.956Z,99184.53
2023-04-19T13:08:47.720Z,99179.53
2023-04-19T13:11:17.876Z,99173.09
2023-04-19T13:13:46.323Z,99179.13
2023-04-19T13:16:16.143Z,99179.56
2023-04-19T13:18:44.588Z,99175.56
2023-04-19T13:21:13.025Z,99176.91
2023-04-19T13:23:41.477Z,99175.50
2023-04-19T13:26:09.866Z,99176.78
2023-04-19T13:28:38.461Z,99169.00
2023-04-19T13:31:07.136Z,99178.13
2023-04-19T13:33:36.865Z,99177.28
2023-04-19T13:36:06.148Z,99176.69
2023-04-19T13:38:34.560Z,99172.38
2023-04-19T13:41:04.792Z,99172.28
2023-04-19T13:43:33.270Z,99168.84
2023-04-19T13:46:01.799Z,99170.38
2023-04-19T13:48:30.255Z,99167.00
2023-04-19T13:51:00.731Z,99152.50
2023-04-19T13:53:29.961Z,99165.97
2023-04-19T13:55:58.758Z,99156.41
2023-04-19T13:58:27.290Z,99158.88
2023-04-19T14:00:55.890Z,99150.88
2023-04-19T14:03:25.360Z,99157.25
2023-04-19T14:05:53.891Z,99152.53
2023-04-19T14:08:23.669Z,99155.16
2023-04-19T14:10:52.459Z,99153.84
2023-04-19T14:13:20.925Z,99150.34
2023-04-19T14:15:49.319Z,99138.81
2023-04-19T14:18:17.767Z,99140.09
2023-04-19T14:20:46.144Z,99139.34
2023-04-19T14:23:14.650Z,99141.06
2023-04-19T14:25:44.448Z,99132.44
2023-04-19T14:28:14.914Z,99144.34
2023-04-19T14:30:43.294Z,99138.78
2023-04-19T14:33:12.123Z,99144.34
2023-04-19T14:35:42.077Z,99150.84
2023-04-19T14:38:10.650Z,99144.78
2023-04-19T14:40:39.009Z,99142.94
2023-04-19T14:43:08.783Z,99146.97
2023-04-19T14:45:37.252Z,99156.72
2023-04-19T14:48:06.382Z,99150.34
2023-04-19T14:50:34.882Z,99151.38
2023-04-19T14:53:03.348Z,99146.34
2023-04-19T14:55:31.865Z,99150.44
2023-04-19T14:58:00.281Z,99155.97
2023-04-19T15:00:30.579Z,99157.97
2023-04-19T15:02:59.178Z,99150.25
2023-04-19T15:05:28.621Z,99152.19
2023-04-19T15:07:57.087Z,99154.03
2023-04-19T15:10:25.616Z,99153.09
2023-04-19T15:12:53.998Z,99156.38
2023-04-19T15:15:23.353Z,99152.47
2023-04-19T15:17:53.111Z,99158.34
2023-04-19T15:20:21.876Z,99160.59
2023-04-19T15:22:50.282Z,99160.22
2023-04-19T15:25:19.712Z,99150.84
2023-04-19T15:27:48.102Z,99151.69
2023-04-19T15:30:16.694Z,99146.13
2023-04-19T15:32:45.156Z,99138.66
2023-04-19T15:35:14.927Z,99143.38
2023-04-19T15:37:43.910Z,99139.25
2023-04-19T15:40:14.488Z,99137.31
2023-04-19T15:42:42.921Z,99142.31
2023-04-19T15:45:12.250Z,99143.53
2023-04-19T15:47:40.700Z,99151.31
2023-04-19T15:50:10.374Z,99141.31
2023-04-19T15:52:40.144Z,99137.97
2023-04-19T15:55:09.609Z,99143.06
2023-04-19T15:57:37.928Z,99151.66
2023-04-19T16:00:09.875Z,99148.13
2023-04-19T16:02:38.483Z,99156.47
2023-04-19T16:05:08.222Z,99153.75
2023-04-19T16:07:36.618Z,99161.97
2023-04-19T16:10:08.195Z,99161.94
2023-04-19T16:12:36.560Z,99162.88
2023-04-19T16:15:05.946Z,99162.19
2023-04-19T16:17:34.599Z,99167.91
2023-04-19T16:20:04.675Z,99155.91
2023-04-19T16:22:33.073Z,99165.75
2023-04-19T16:25:01.507Z,99161.72
2023-04-19T16:27:31.367Z,99161.03
2023-04-19T16:29:59.907Z,99163.06
2023-04-19T16:32:28.494Z,99165.31
2023-04-19T16:34:57.253Z,99164.91
2023-04-19T16:37:25.738Z,99166.41
2023-04-19T16:39:54.127Z,99176.56
2023-04-19T16:42:22.581Z,99171.38
2023-04-19T16:44:52.381Z,99168.81
2023-04-19T16:47:21.912Z,99170.00
2023-04-19T16:49:50.627Z,99180.63
2023-04-19T16:52:19.188Z,99172.72
2023-04-19T16:54:47.568Z,99181.72
2023-04-19T16:57:16.242Z,99184.25
2023-04-19T16:59:44.656Z,99190.47
2023-04-19T17:02:14.873Z,99190.88
2023-04-19T17:04:43.582Z,99198.09
2023-04-19T17:07:12.491Z,99195.72
2023-04-19T17:09:41.145Z,99186.75
2023-04-19T17:12:10.028Z,99198.19
2023-04-19T17:14:40.645Z,99202.94
2023-04-19T17:17:10.822Z,99193.88
2023-04-19T17:19:41.048Z,99204.75
2023-04-19T17:22:09.646Z,99185.78
2023-04-19T17:24:39.620Z,99197.47
2023-04-19T17:27:11.819Z,99201.19
2023-04-19T17:29:40.493Z,99200.22
2023-04-19T17:32:16.732Z,99203.03
2023-04-19T17:34:46.795Z,99205.31
2023-04-19T17:37:17.836Z,99205.34
2023-04-19T17:39:46.366Z,99214.53
2023-04-19T17:42:21.913Z,99212.94
2023-04-19T17:44:52.503Z,99225.13
2023-04-19T17:47:21.719Z,99216.91
2023-04-19T17:49:52.054Z,99225.78
2023-04-19T17:52:21.250Z,99234.63
2023-04-19T17:54:50.853Z,99230.53
2023-04-19T17:57:22.823Z,99242.69
2023-04-19T17:59:52.396Z,99241.34
2023-04-19T18:02:22.809Z,99243.78
2023-04-19T18:04:53.955Z,99248.22
2023-04-19T18:07:23.549Z,99243.78
2023-04-19T18:09:52.684Z,99241.34
2023-04-19T18:12:21.778Z,99246.28
2023-04-19T18:14:51.767Z,99254.34
2023-04-19T18:17:20.897Z,99250.22
2023-04-19T18:19:51.709Z,99251.91
2023-04-19T18:22:21.928Z,99251.66
2023-04-19T18:24:53.986Z,99258.84
2023-04-19T18:27:23.312Z,99264.66
2023-04-19T18:29:54.506Z,99262.47
2023-04-19T18:32:29.270Z,99272.97
2023-04-19T18:35:02.703Z,99271.31
2023-04-19T18:37:33.402Z,99270.78
2023-04-19T18:40:02.389Z,99273.84
2023-04-19T18:42:32.803Z,99276.06
2023-04-19T18:45:04.719Z,99279.38
2023-04-19T18:47:35.410Z,99273.63
2023-04-19T18:50:07.617Z,99288.28
2023-04-19T18:52:40.858Z,99284.72
2023-04-19T18:55:12.638Z,99288.34
2023-04-19T18:57:43.060Z,99290.84
2023-04-19T19:00:14.956Z,99298.88
2023-04-19T19:02:44.636Z,99302.19
2023-04-19T19:05:16.664Z,99299.72
2023-04-19T19:07:49.556Z,99295.28
2023-04-19T19:10:22.324Z,99293.97
2023-04-19T19:12:55.708Z,99299.19
2023-04-19T19:15:27.627Z,99304.72
2023-04-19T19:17:58.239Z,99306.13
2023-04-19T19:20:28.285Z,99306.72
2023-04-19T19:22:59.335Z,99309.19
2023-04-19T19:25:29.960Z,99313.06
2023-04-19T19:30:51.700Z,99316.38
2023-04-19T19:33:21.879Z,99305.91
2023-04-19T19:35:52.140Z,99314.47
2023-04-19T19:38:24.433Z,99322.19
2023-04-19T19:41:30.921Z,99315.31
2023-04-19T19:43:46.325Z,99323.88
2023-04-19T19:46:16.300Z,99324.69
2023-04-19T19:51:41.735Z,99329.94
2023-04-19T19:54:11.645Z,99321.13
2023-04-19T19:56:55.651Z,99328.56
2023-04-19T19:59:34.903Z,99316.47
2023-04-19T20:02:05.066Z,99322.25
2023-04-19T20:04:37.213Z,99319.22
2023-04-19T20:07:32.830Z,99322.81
2023-04-19T20:09:57.859Z,99321.19
2023-04-19T20:12:30.300Z,99325.59
2023-04-19T20:14:59.327Z,99328.63
2023-04-19T20:17:30.320Z,99323.66
2023-04-19T20:20:00.553Z,99320.09
2023-04-19T20:22:29.982Z,99314.31
2023-04-19T20:25:00.939Z,99319.00
2023-04-19T20:27:30.670Z,99319.56
2023-04-19T20:30:01.564Z,99324.25
2023-04-19T20:32:32.390Z,99331.94
2023-04-19T20:35:03.033Z,99331.69
2023-04-19T20:37:36.172Z,99336.91
2023-04-19T20:40:11.506Z,99338.56
2023-04-19T20:42:41.318Z,99331.44
2023-04-19T20:45:12.496Z,99332.81
2023-04-19T20:47:42.860Z,99332.25
2023-04-19T20:50:14.811Z,99334.19
2023-04-19T20:52:44.010Z,99345.44
2023-04-19T20:55:15.448Z,99342.69
2023-04-19T20:57:44.403Z,99343.81
2023-04-19T21:00:17.177Z,99344.66
2023-04-19T21:02:46.150Z,99336.09
2023-04-19T21:05:14.961Z,99336.94
2023-04-19T21:07:43.798Z,99333.91
2023-04-19T21:10:13.780Z,99331.16
2023-04-19T21:12:42.141Z,99332.81
2023-04-19T21:15:12.189Z,99334.44
2023-04-19T21:17:40.925Z,99326.19
2023-04-19T21:20:14.206Z,99329.47
2023-04-19T21:22:43.806Z,99334.72
2023-04-19T21:25:14.422Z,99328.09
2023-04-19T21:27:43.536Z,99328.94
2023-04-19T21:30:13.713Z,99322.34
2023-04-19T21:32:42.176Z,99334.16
2023-04-19T21:35:11.454Z,99329.22
2023-04-19T21:37:39.911Z,99328.09
2023-04-19T21:40:09.786Z,99329.50
2023-04-19T21:42:39.696Z,99338.28
2023-04-19T21:45:10.057Z,99335.25
2023-04-19T21:47:38.533Z,99335.84
2023-04-19T21:50:09.161Z,99334.72
2023-04-19T21:52:37.625Z,99333.03
2023-04-19T21:55:07.892Z,99337.47
2023-04-19T21:57:38.354Z,99335.81
2023-04-19T22:00:10.363Z,99338.56
2023-04-19T22:02:38.998Z,99335.81
2023-04-19T22:05:08.416Z,99338.31
2023-04-19T22:07:38.612Z,99339.09
2023-04-19T22:10:09.483Z,99348.75
2023-04-19T22:12:48.021Z,99346.00
2023-04-19T22:15:26.005Z,99344.91
2023-04-19T22:17:54.578Z,99337.47
2023-04-19T22:20:23.809Z,99341.03
2023-04-19T22:22:52.383Z,99351.78
2023-04-19T22:25:21.254Z,99346.28
2023-04-19T22:27:49.639Z,99343.53
2023-04-19T22:30:18.086Z,99345.16
2023-04-19T22:32:47.889Z,99345.16
2023-04-19T22:35:16.879Z,99342.13
2023-04-19T22:37:45.357Z,99357.00
2023-04-19T22:40:14.677Z,99351.50
2023-04-19T22:42:43.171Z,99355.63
2023-04-19T22:45:12.501Z,99350.94
2023-04-19T22:47:40.984Z,99352.03
2023-04-19T22:50:12.091Z,99348.75
2023-04-19T22:52:40.986Z,99351.50
2023-04-19T22:55:10.649Z,99350.13
2023-04-19T22:57:39.074Z,99347.38
2023-04-19T23:00:10.673Z,99352.31
2023-04-19T23:02:40.049Z,99353.16
2023-04-19T23:05:11.372Z,99352.63
2023-04-19T23:07:42.030Z,99350.41
2023-04-19T23:10:12.314Z,99347.91
2023-04-19T23:12:40.824Z,99354.53
2023-04-19T23:15:11.205Z,99358.38
2023-04-19T23:17:40.543Z,99356.47
2023-04-19T23:20:12.077Z,99346.28
2023-04-19T23:22:40.812Z,99350.66
2023-04-19T23:25:10.979Z,99346.00
2023-04-19T23:27:39.387Z,99344.59
2023-04-19T23:30:09.620Z,99335.78
2023-04-19T23:32:38.195Z,99336.88
2023-04-19T23:35:07.884Z,99335.50
2023-04-19T23:37:38.093Z,99341.03
2023-04-19T23:40:09.117Z,99344.34
2023-04-19T23:42:38.975Z,99334.16
2023-04-19T23:45:09.168Z,99334.97
2023-04-19T23:47:37.647Z,99337.75
2023-04-19T23:50:07.244Z,99329.72
2023-04-19T23:52:37.005Z,99324.22
2023-04-19T23:55:06.874Z,99322.59
2023-04-19T23:57:35.926Z,99312.09
